Time;durP1;ratioP1;P1;durP2;ratioP2;P2;SDS_P1;SDS_P2;PMS_P1;PMS_P2;Temp;Humidity;BMP_temperature;BMP_pressure;BME280_temperature;BME280_humidity;BME280_pressure;Samples;Min_cycle;Max_cycle;Signal;HPM_P1;HPM_P2
2022/09/18 00:01:00;;;;;;;4.60;1.60;;;10.70;1.00;;;;;;4949116;28;21422;-65
2022/09/18 00:03:27;;;;;;;6.10;1.77;;;10.70;1.00;;;;;;4947176;28;20434;-66
2022/09/18 00:05:53;;;;;;;10.53;2.10;;;10.50;1.00;;;;;;4949325;28;20587;-65
2022/09/18 00:08:19;;;;;;;3.93;1.77;;;10.70;31.00;;;;;;4948034;28;20520;-65
2022/09/18 00:10:45;;;;;;;3.87;1.70;;;10.70;1.00;;;;;;4947397;28;20187;-65
2022/09/18 00:13:13;;;;;;;3.63;1.87;;;10.70;71.90;;;;;;4946380;28;20186;-65
2022/09/18 00:15:39;;;;;;;7.23;1.77;;;10.60;99.90;;;;;;4948503;28;20587;-66
2022/09/18 00:18:05;;;;;;;3.57;1.90;;;10.60;99.90;;;;;;4951288;28;20974;-66
2022/09/18 00:20:34;;;;;;;2.07;1.70;;;10.60;99.90;;;;;;4946040;28;20210;-66
2022/09/18 00:22:59;;;;;;;1.60;1.40;;;10.60;1.00;;;;;;4949639;28;20430;-66
2022/09/18 00:25:25;;;;;;;3.43;1.70;;;10.60;99.90;;;;;;4946486;28;20453;-66
2022/09/18 00:27:51;;;;;;;3.33;1.70;;;10.70;1.00;;;;;;4949548;28;20555;-65
2022/09/18 00:30:16;;;;;;;3.13;2.83;;;10.80;1.00;;;;;;4945831;28;20587;-66
2022/09/18 00:32:42;;;;;;;2.67;1.63;;;10.70;1.00;;;;;;4946663;28;20207;-65
2022/09/18 00:35:08;;;;;;;4.83;1.53;;;10.80;1.00;;;;;;4947815;28;20265;-66
2022/09/18 00:37:34;;;;;;;1.80;1.53;;;10.80;1.00;;;;;;4946295;28;20178;-67
2022/09/18 00:40:00;;;;;;;7.00;2.33;;;10.70;1.00;;;;;;4952091;28;20445;-66
2022/09/18 00:42:26;;;;;;;3.20;1.60;;;10.70;1.00;;;;;;4952729;28;20179;-66
2022/09/18 00:44:51;;;;;;;3.00;1.93;;;10.80;1.00;;;;;;4950868;28;20214;-67
2022/09/18 00:47:20;;;;;;;4.20;1.60;;;10.80;1.00;;;;;;4951789;28;20174;-66
2022/09/18 00:49:52;;;;;;;4.23;1.90;;;10.80;1.00;;;;;;4950167;28;20179;-66
2022/09/18 00:52:20;;;;;;;3.57;1.50;;;10.80;1.00;;;;;;4950637;28;20473;-66
2022/09/18 00:54:54;;;;;;;1.93;1.57;;;10.80;1.00;;;;;;4949464;28;20477;-65
2022/09/18 00:57:27;;;;;;;3.00;1.80;;;10.70;99.90;;;;;;4950389;28;20930;-65
2022/09/18 00:59:53;;;;;;;5.40;1.47;;;10.70;1.00;;;;;;4950113;28;20433;-65
2022/09/18 01:02:19;;;;;;;2.17;1.37;;;10.70;1.00;;;;;;4950481;28;20846;-65
2022/09/18 01:04:46;;;;;;;4.27;1.30;;;10.70;1.00;;;;;;4949252;28;20443;-66
2022/09/18 01:07:51;;;;;;;6.80;1.50;;;10.70;1.00;;;;;;4951489;28;20175;-66
2022/09/18 01:10:30;;;;;;;5.93;2.70;;;10.70;1.00;;;;;;4951215;28;20425;-66
2022/09/18 01:13:01;;;;;;;3.60;2.00;;;10.70;1.00;;;;;;4951143;28;20421;-66
2022/09/18 01:15:51;;;;;;;4.20;1.63;;;10.70;1.00;;;;;;4951144;28;20460;-66
2022/09/18 01:18:28;;;;;;;5.73;1.90;;;10.70;1.00;;;;;;4950060;28;20492;-64
2022/09/18 01:21:12;;;;;;;8.37;1.60;;;10.80;1.00;;;;;;4949927;28;20462;-66
2022/09/18 01:24:18;;;;;;;3.33;1.50;;;10.70;1.00;;;;;;4951693;28;20430;-66
2022/09/18 01:26:55;;;;;;;2.27;1.93;;;10.70;54.60;;;;;;4949849;28;20485;-65
2022/09/18 01:29:59;;;;;;;2.70;2.07;;;10.70;1.00;;;;;;4951634;28;20432;-65
2022/09/18 01:32:54;;;;;;;4.43;1.60;;;10.70;1.00;;;;;;4949173;28;20488;-66
2022/09/18 01:35:38;;;;;;;2.93;1.33;;;10.70;1.00;;;;;;4952565;28;20465;-66
2022/09/18 01:38:25;;;;;;;6.80;1.50;;;10.70;1.00;;;;;;4949411;28;20954;-65
2022/09/18 01:41:02;;;;;;;4.03;1.60;;;10.80;1.00;;;;;;4949031;28;20593;-66
2022/09/18 01:43:30;;;;;;;3.93;1.60;;;10.80;1.00;;;;;;4952724;28;20436;-65
2022/09/18 01:46:00;;;;;;;4.10;1.83;;;10.70;1.00;;;;;;4952095;28;20522;-65
2022/09/18 01:48:40;;;;;;;4.40;2.00;;;10.80;99.90;;;;;;4948426;28;20455;-65
2022/09/18 01:51:17;;;;;;;4.40;1.50;;;10.80;99.90;;;;;;4949591;28;20487;-64
2022/09/18 01:54:04;;;;;;;4.37;1.67;;;10.70;1.00;;;;;;4947563;28;20469;-64
2022/09/18 01:56:37;;;;;;;3.00;1.40;;;10.80;69.40;;;;;;4948862;28;20843;-64
2022/09/18 01:59:11;;;;;;;1.67;1.57;;;10.70;1.00;;;;;;4949398;28;20469;-66
2022/09/18 02:01:39;;;;;;;2.17;1.20;;;10.80;1.00;;;;;;4948766;28;20769;-66
2022/09/18 02:04:13;;;;;;;3.53;1.60;;;10.80;99.90;;;;;;4949398;28;20429;-65
2022/09/18 02:06:53;;;;;;;2.60;1.50;;;10.80;1.00;;;;;;4948524;28;20425;-66
2022/09/18 02:09:19;;;;;;;4.90;1.70;;;10.80;99.90;;;;;;4948694;28;20436;-66
2022/09/18 02:11:49;;;;;;;3.30;1.40;;;10.80;99.90;;;;;;4948509;28;20796;-66
2022/09/18 02:14:41;;;;;;;2.50;1.83;;;10.80;99.90;;;;;;4949038;28;20197;-66
2022/09/18 02:17:25;;;;;;;3.50;1.50;;;10.90;53.90;;;;;;4947259;28;20436;-65
2022/09/18 02:19:58;;;;;;;4.40;2.33;;;10.80;8.40;;;;;;4946661;28;20481;-66
2022/09/18 02:22:29;;;;;;;2.63;1.40;;;10.80;10.30;;;;;;4948641;28;20437;-66
2022/09/18 02:24:58;;;;;;;2.40;1.70;;;10.80;1.00;;;;;;4949601;28;20937;-66
2022/09/18 02:27:26;;;;;;;3.63;1.40;;;10.80;99.90;;;;;;4953118;28;20453;-66
2022/09/18 02:29:54;;;;;;;1.80;1.40;;;10.80;99.90;;;;;;4949521;28;20442;-66
2022/09/18 02:32:19;;;;;;;7.17;2.20;;;10.90;99.90;;;;;;4953017;28;20418;-67
2022/09/18 02:34:45;;;;;;;6.20;1.40;;;10.90;99.90;;;;;;4951114;28;20910;-67
2022/09/18 02:37:29;;;;;;;5.17;1.90;;;10.90;99.90;;;;;;4954729;28;20178;-67
2022/09/18 02:40:10;;;;;;;6.17;1.43;;;10.90;1.00;;;;;;4952782;28;20215;-67
2022/09/18 02:43:03;;;;;;;4.87;1.80;;;10.90;1.00;;;;;;4956639;28;20442;-67
2022/09/18 02:45:52;;;;;;;2.90;1.43;;;10.80;99.90;;;;;;4957791;28;20472;-67
2022/09/18 02:48:38;;;;;;;7.00;1.50;;;10.80;99.90;;;;;;4948072;28;20426;-67
2022/09/18 02:51:13;;;;;;;6.00;1.60;;;10.70;1.00;;;;;;4947277;28;20962;-66
2022/09/18 02:53:46;;;;;;;2.37;1.30;;;10.80;1.00;;;;;;4945987;28;20434;-66
2022/09/18 02:56:43;;;;;;;6.23;1.67;;;10.80;1.00;;;;;;4950805;28;20452;-67
2022/09/18 02:59:33;;;;;;;2.90;1.33;;;10.80;1.00;;;;;;4947848;28;21010;-66
2022/09/18 03:01:59;;;;;;;2.17;1.33;;;10.80;99.90;;;;;;4946864;28;20469;-67
2022/09/18 03:04:26;;;;;;;5.50;1.90;;;10.80;1.00;;;;;;4952796;28;20544;-66
2022/09/18 03:06:52;;;;;;;2.13;1.30;;;10.80;1.00;;;;;;4947386;28;20971;-66
2022/09/18 03:09:18;;;;;;;2.60;2.20;;;10.80;1.00;;;;;;4949169;28;20430;-67
2022/09/18 03:11:44;;;;;;;3.53;1.47;;;10.80;1.00;;;;;;4947219;28;20489;-67
2022/09/18 03:14:11;;;;;;;7.90;1.87;;;10.80;1.00;;;;;;4956537;28;20237;-67
2022/09/18 03:16:36;;;;;;;2.40;1.47;;;10.80;1.00;;;;;;4943937;28;20289;-68
2022/09/18 03:19:03;;;;;;;3.00;1.33;;;10.80;1.00;;;;;;4945380;28;20563;-67
2022/09/18 03:21:29;;;;;;;2.50;1.77;;;10.80;1.00;;;;;;4944914;28;20210;-68
2022/09/18 03:23:55;;;;;;;1.90;1.40;;;10.80;8.50;;;;;;4945118;28;20435;-68
2022/09/18 03:26:21;;;;;;;3.00;1.30;;;10.80;91.90;;;;;;4949556;28;20444;-68
2022/09/18 03:28:46;;;;;;;4.13;1.63;;;10.80;99.90;;;;;;4943334;28;20179;-68
2022/09/18 03:31:12;;;;;;;5.00;1.67;;;10.80;99.90;;;;;;4949040;28;20193;-67
2022/09/18 03:33:38;;;;;;;1.93;1.37;;;10.80;1.00;;;;;;4951333;28;20301;-67
2022/09/18 03:36:05;;;;;;;2.03;1.20;;;10.80;1.00;;;;;;4948027;28;20214;-66
2022/09/18 03:38:31;;;;;;;3.40;1.47;;;10.80;1.00;;;;;;4947299;28;20464;-68
2022/09/18 03:40:57;;;;;;;2.50;1.30;;;10.70;1.00;;;;;;4944552;28;20462;-66
2022/09/18 03:43:23;;;;;;;4.00;1.60;;;10.70;1.00;;;;;;4948187;28;20421;-66
2022/09/18 03:45:49;;;;;;;3.40;1.80;;;10.70;99.90;;;;;;4935788;28;20274;-65
2022/09/18 03:48:14;;;;;;;5.70;1.90;;;10.70;35.60;;;;;;4933362;29;20193;-66
2022/09/18 03:50:40;;;;;;;8.23;1.70;;;10.70;50.90;;;;;;4932166;29;20187;-67
2022/09/18 03:53:07;;;;;;;6.07;2.10;;;10.60;1.00;;;;;;4932512;29;20186;-65
2022/09/18 03:55:34;;;;;;;3.43;2.17;;;10.70;1.00;;;;;;4932906;29;20281;-66
2022/09/18 03:58:00;;;;;;;9.90;1.53;;;10.70;99.90;;;;;;4932228;29;20538;-66
2022/09/18 04:00:26;;;;;;;5.43;2.17;;;10.60;1.00;;;;;;4931952;29;20550;-66
2022/09/18 04:02:52;;;;;;;4.63;1.50;;;10.60;68.90;;;;;;4932844;29;20183;-66
2022/09/18 04:05:18;;;;;;;5.50;1.70;;;10.60;99.90;;;;;;4932828;29;20461;-67
2022/09/18 04:07:43;;;;;;;3.27;1.60;;;10.50;99.90;;;;;;4932743;29;20202;-67
2022/09/18 04:10:09;;;;;;;2.70;1.20;;;10.50;1.00;;;;;;4932917;29;20190;-66
2022/09/18 04:12:35;;;;;;;4.57;1.77;;;10.50;1.00;;;;;;4932406;29;20541;-66
2022/09/18 04:15:01;;;;;;;7.43;1.67;;;10.50;1.00;;;;;;4935990;29;20199;-66
2022/09/18 04:17:26;;;;;;;5.20;1.70;;;10.40;1.00;;;;;;4936351;29;20178;-65
2022/09/18 04:19:53;;;;;;;3.73;2.20;;;10.50;1.00;;;;;;4935250;29;20517;-66
2022/09/18 04:22:19;;;;;;;4.43;1.60;;;10.50;1.00;;;;;;4936510;29;20209;-66
2022/09/18 04:24:45;;;;;;;5.50;1.80;;;10.50;1.00;;;;;;4936208;29;20461;-67
2022/09/18 04:27:11;;;;;;;3.90;1.83;;;10.40;1.00;;;;;;4935987;29;20434;-66
2022/09/18 04:29:37;;;;;;;10.53;2.40;;;10.50;1.00;;;;;;4934949;29;20194;-66
2022/09/18 04:32:04;;;;;;;2.93;1.60;;;10.40;1.00;;;;;;4937145;29;22396;-66
2022/09/18 04:34:29;;;;;;;7.60;1.50;;;10.40;1.00;;;;;;4936290;29;20198;-66
2022/09/18 04:36:58;;;;;;;4.07;2.10;;;10.30;1.00;;;;;;4935784;29;20438;-66
2022/09/18 04:39:24;;;;;;;4.37;2.07;;;10.30;67.90;;;;;;4935738;29;20191;-66
2022/09/18 04:41:50;;;;;;;6.63;1.90;;;10.20;99.90;;;;;;4936017;29;20481;-66
2022/09/18 04:44:16;;;;;;;3.83;1.90;;;10.30;99.90;;;;;;4938886;29;20541;-66
2022/09/18 04:46:44;;;;;;;2.40;1.60;;;10.30;99.90;;;;;;4937042;29;21019;-66
2022/09/18 04:49:12;;;;;;;8.07;1.70;;;10.30;99.90;;;;;;4935781;29;20655;-67
2022/09/18 04:51:40;;;;;;;3.67;1.47;;;10.30;99.90;;;;;;4936565;29;20836;-66
2022/09/18 04:54:06;;;;;;;4.60;1.60;;;10.30;99.90;;;;;;4935967;29;20545;-67
2022/09/18 04:56:34;;;;;;;9.10;3.80;;;10.30;99.90;;;;;;4936095;29;20530;-65
2022/09/18 04:59:00;;;;;;;11.60;2.23;;;10.30;99.90;;;;;;4928021;29;20188;-66
2022/09/18 05:01:25;;;;;;;7.90;2.00;;;10.30;99.90;;;;;;4936244;29;20533;-66
2022/09/18 05:03:51;;;;;;;2.70;1.90;;;10.20;99.90;;;;;;4935939;29;20183;-65
2022/09/18 05:06:17;;;;;;;3.10;1.97;;;10.30;99.90;;;;;;4935881;29;20258;-66
2022/09/18 05:08:42;;;;;;;4.90;1.80;;;10.20;99.90;;;;;;4936039;29;20262;-66
2022/09/18 05:11:08;;;;;;;4.60;1.50;;;10.30;99.90;;;;;;4935973;29;20191;-64
2022/09/18 05:13:34;;;;;;;3.23;1.90;;;10.30;99.90;;;;;;4935399;29;20191;-66
2022/09/18 05:16:00;;;;;;;5.60;1.97;;;10.30;99.90;;;;;;4935655;29;20257;-65
2022/09/18 05:18:26;;;;;;;8.87;2.00;;;10.40;99.90;;;;;;4933923;28;20186;-65
2022/09/18 05:20:53;;;;;;;11.27;2.20;;;10.30;99.90;;;;;;4934530;29;20550;-66
2022/09/18 05:23:20;;;;;;;6.47;1.70;;;10.30;99.90;;;;;;4932958;29;20190;-66
2022/09/18 05:25:45;;;;;;;7.67;2.50;;;10.30;99.90;;;;;;4931754;29;20455;-66
2022/09/18 05:28:13;;;;;;;2.00;1.60;;;10.40;99.90;;;;;;4932114;29;20430;-66
2022/09/18 05:30:39;;;;;;;3.10;1.90;;;10.40;99.90;;;;;;4932668;29;20571;-67
2022/09/18 05:33:06;;;;;;;9.50;2.80;;;10.40;99.90;;;;;;4933257;29;20496;-67
2022/09/18 05:35:34;;;;;;;2.77;1.77;;;10.40;99.90;;;;;;4933423;29;20206;-66
2022/09/18 05:38:00;;;;;;;2.00;1.70;;;10.40;99.90;;;;;;4930771;29;20449;-67
2022/09/18 05:40:31;;;;;;;3.40;1.73;;;10.40;99.90;;;;;;4931017;29;20470;-66
2022/09/18 05:42:57;;;;;;;3.90;1.57;;;10.40;99.90;;;;;;4931429;29;20465;-67
2022/09/18 05:45:23;;;;;;;7.00;1.73;;;10.40;99.90;;;;;;4932605;29;20466;-66
2022/09/18 05:47:56;;;;;;;5.20;2.00;;;10.40;99.90;;;;;;4931117;29;20963;-67
2022/09/18 05:50:23;;;;;;;4.30;2.27;;;10.50;99.90;;;;;;4932687;29;20175;-66
2022/09/18 05:53:06;;;;;;;4.93;2.03;;;10.50;99.90;;;;;;4932930;29;20550;-67
2022/09/18 05:55:33;;;;;;;3.53;1.63;;;10.50;99.90;;;;;;4932835;29;20823;-67
2022/09/18 05:58:01;;;;;;;3.00;1.60;;;10.60;60.80;;;;;;4931693;29;20441;-67
2022/09/18 06:00:28;;;;;;;3.57;2.53;;;10.60;99.90;;;;;;4932174;29;20492;-67
2022/09/18 06:02:56;;;;;;;8.13;2.20;;;10.50;99.90;;;;;;4931787;29;20438;-66
2022/09/18 06:05:27;;;;;;;11.60;2.20;;;10.60;99.90;;;;;;4930260;29;20459;-67
2022/09/18 06:07:53;;;;;;;4.13;1.70;;;10.60;99.90;;;;;;4931659;29;20966;-68
2022/09/18 06:10:21;;;;;;;13.80;2.97;;;10.60;99.90;;;;;;4931017;29;20426;-67
2022/09/18 06:12:47;;;;;;;3.73;2.10;;;10.60;99.90;;;;;;4931396;29;20297;-67
2022/09/18 06:15:14;;;;;;;3.20;2.00;;;10.60;99.90;;;;;;4931931;29;20465;-67
2022/09/18 06:17:40;;;;;;;14.80;2.73;;;10.60;99.90;;;;;;4931944;29;20206;-67
2022/09/18 06:20:07;;;;;;;26.90;3.20;;;10.70;99.90;;;;;;4932624;29;20430;-68
2022/09/18 06:22:37;;;;;;;5.40;2.17;;;10.70;99.90;;;;;;4930249;29;20830;-66
2022/09/18 06:25:04;;;;;;;7.80;2.47;;;10.70;99.90;;;;;;4931868;29;20951;-67
2022/09/18 06:27:29;;;;;;;12.83;3.60;;;10.70;99.90;;;;;;4930012;29;20431;-66
2022/09/18 06:29:55;;;;;;;7.27;2.00;;;10.70;99.90;;;;;;4928285;29;20431;-67
2022/09/18 06:32:20;;;;;;;5.83;2.00;;;10.80;99.90;;;;;;4934253;29;20178;-67
2022/09/18 06:34:46;;;;;;;5.50;1.93;;;10.80;99.90;;;;;;4929253;29;20699;-66
2022/09/18 06:37:13;;;;;;;3.63;1.97;;;10.80;99.90;;;;;;4928519;29;20218;-67
2022/09/18 06:39:39;;;;;;;6.67;2.03;;;10.80;99.90;;;;;;4934818;29;20179;-66
2022/09/18 06:42:05;;;;;;;5.87;2.43;;;10.80;99.90;;;;;;4934118;29;20486;-66
2022/09/18 06:44:31;;;;;;;5.77;2.10;;;10.90;99.90;;;;;;4932260;29;20509;-66
2022/09/18 06:46:57;;;;;;;7.93;2.60;;;10.90;99.90;;;;;;4933549;29;20431;-66
2022/09/18 06:49:22;;;;;;;5.30;1.87;;;10.90;88.30;;;;;;4936072;28;20179;-66
2022/09/18 06:51:48;;;;;;;6.73;2.13;;;10.80;45.90;;;;;;4934454;29;20182;-66
2022/09/18 06:54:15;;;;;;;3.73;1.87;;;10.80;99.90;;;;;;4933862;29;20187;-66
2022/09/18 06:56:41;;;;;;;5.87;1.93;;;10.80;99.90;;;;;;4927698;29;20194;-66
2022/09/18 06:59:07;;;;;;;3.03;1.70;;;10.90;35.10;;;;;;4932711;29;21864;-67
2022/09/18 07:01:33;;;;;;;2.23;1.80;;;10.80;1.00;;;;;;4934115;29;20455;-66
2022/09/18 07:03:58;;;;;;;3.40;1.73;;;10.80;59.50;;;;;;4933527;29;20191;-66
2022/09/18 07:06:25;;;;;;;4.40;1.40;;;10.80;21.00;;;;;;4935203;29;20179;-67
2022/09/18 07:08:51;;;;;;;6.77;2.13;;;10.80;56.80;;;;;;4934019;29;20194;-67
2022/09/18 07:11:17;;;;;;;2.87;1.50;;;10.70;91.40;;;;;;4935139;29;20435;-67
2022/09/18 07:13:42;;;;;;;3.13;1.97;;;10.80;99.90;;;;;;4934439;29;20449;-67
2022/09/18 07:16:08;;;;;;;2.27;1.60;;;10.90;99.90;;;;;;4934247;29;20216;-67
2022/09/18 07:18:34;;;;;;;13.07;3.77;;;10.90;99.90;;;;;;4933708;29;20688;-67
2022/09/18 07:21:00;;;;;;;13.80;3.00;;;10.90;99.90;;;;;;4933961;29;20463;-66
2022/09/18 07:23:28;;;;;;;10.93;3.90;;;11.00;99.90;;;;;;4933929;28;20626;-67
2022/09/18 07:25:54;;;;;;;4.90;2.20;;;11.00;99.90;;;;;;4933211;29;20226;-67
2022/09/18 07:28:20;;;;;;;32.90;5.80;;;11.00;99.90;;;;;;4933009;29;20512;-67
2022/09/18 07:30:46;;;;;;;10.17;2.13;;;10.90;99.90;;;;;;4933503;29;20474;-67
2022/09/18 07:33:12;;;;;;;17.23;4.30;;;10.90;99.90;;;;;;4934519;29;20439;-68
2022/09/18 07:35:37;;;;;;;5.07;2.40;;;10.90;99.90;;;;;;4933941;29;20250;-67
2022/09/18 07:38:05;;;;;;;4.83;2.00;;;11.00;99.90;;;;;;4933799;29;20187;-67
2022/09/18 07:40:31;;;;;;;4.50;2.00;;;11.00;99.90;;;;;;4933791;29;20214;-66
2022/09/18 07:43:06;;;;;;;4.93;2.17;;;10.90;99.90;;;;;;4933466;29;21082;-66
2022/09/18 07:45:32;;;;;;;3.30;2.47;;;10.90;99.90;;;;;;4933656;29;20588;-66
2022/09/18 07:48:00;;;;;;;12.20;2.73;;;11.00;99.90;;;;;;4932443;28;20427;-66
2022/09/18 07:50:26;;;;;;;6.10;3.07;;;10.90;99.90;;;;;;4932608;29;20727;-66
2022/09/18 07:52:54;;;;;;;8.53;2.20;;;10.90;99.90;;;;;;4934394;29;20514;-65
2022/09/18 07:55:21;;;;;;;11.33;2.87;;;11.00;99.90;;;;;;4933297;29;20191;-66
2022/09/18 07:57:52;;;;;;;5.83;2.33;;;11.00;99.90;;;;;;4943137;28;20449;-65
2022/09/18 08:00:18;;;;;;;2.50;1.90;;;11.10;99.90;;;;;;4931603;29;20482;-65
2022/09/18 08:02:43;;;;;;;4.80;1.97;;;11.10;99.90;;;;;;4934012;29;20446;-65
2022/09/18 08:05:10;;;;;;;2.80;2.13;;;11.00;99.90;;;;;;4933514;29;20203;-67
2022/09/18 08:07:36;;;;;;;7.33;1.83;;;11.10;99.90;;;;;;4933471;29;20211;-66
2022/09/18 08:10:04;;;;;;;3.93;2.57;;;11.10;99.90;;;;;;4931467;29;20474;-65
2022/09/18 08:12:30;;;;;;;3.00;1.77;;;11.10;99.90;;;;;;4933060;29;20517;-66
2022/09/18 08:14:57;;;;;;;6.80;2.20;;;11.20;99.90;;;;;;4931939;29;20768;-67
2022/09/18 08:17:23;;;;;;;3.80;2.20;;;11.20;99.90;;;;;;4932286;29;20425;-67
2022/09/18 08:19:49;;;;;;;4.93;2.87;;;11.10;99.90;;;;;;4932464;29;20439;-66
2022/09/18 08:22:14;;;;;;;19.47;3.70;;;11.20;99.90;;;;;;4933684;29;20466;-67
2022/09/18 08:24:41;;;;;;;42.83;8.10;;;11.20;99.90;;;;;;4931385;29;20195;-66
2022/09/18 08:27:07;;;;;;;7.23;2.67;;;11.30;82.00;;;;;;4932943;29;20175;-65
2022/09/18 08:29:32;;;;;;;9.63;2.93;;;11.30;98.70;;;;;;4932339;29;20969;-66
2022/09/18 08:31:58;;;;;;;2.90;2.60;;;11.40;1.00;;;;;;4931515;29;20265;-67
2022/09/18 08:34:24;;;;;;;10.47;2.33;;;11.40;1.00;;;;;;4934142;29;20213;-66
2022/09/18 08:36:49;;;;;;;4.40;2.10;;;11.40;7.20;;;;;;4931591;29;20557;-66
2022/09/18 08:39:15;;;;;;;2.73;1.87;;;11.40;1.00;;;;;;4936567;29;20218;-67
2022/09/18 08:42:08;;;;;;;2.80;1.67;;;11.50;1.00;;;;;;4935245;29;20782;-66
2022/09/18 08:45:07;;;;;;;6.40;1.40;;;11.70;1.00;;;;;;4935509;29;20230;-67
2022/09/18 08:47:41;;;;;;;4.27;1.73;;;11.90;1.00;;;;;;4930318;29;20480;-66
2022/09/18 08:50:26;;;;;;;4.10;2.17;;;12.20;1.00;;;;;;4933007;29;20542;-64
2022/09/18 08:53:17;;;;;;;5.50;1.90;;;12.20;1.00;;;;;;4934097;29;20984;-65
2022/09/18 08:55:46;;;;;;;2.53;1.70;;;12.30;20.30;;;;;;4933446;29;20951;-65
2022/09/18 08:58:21;;;;;;;7.20;2.10;;;12.30;1.00;;;;;;4931409;29;20467;-64
2022/09/18 09:00:49;;;;;;;6.97;1.80;;;12.30;99.90;;;;;;4935616;29;21088;-66
2022/09/18 09:03:51;;;;;;;3.40;2.10;;;12.30;99.90;;;;;;4936882;29;21006;-66
2022/09/18 09:06:49;;;;;;;6.30;2.30;;;12.30;99.90;;;;;;4937002;29;20442;-65
2022/09/18 09:09:32;;;;;;;3.60;2.13;;;12.10;1.00;;;;;;4935506;29;20460;-65
2022/09/18 09:12:25;;;;;;;2.90;1.70;;;12.00;1.00;;;;;;4935120;29;20943;-65
2022/09/18 09:15:24;;;;;;;2.03;1.23;;;12.10;1.00;;;;;;4935661;28;20486;-66
2022/09/18 09:18:14;;;;;;;2.00;1.23;;;12.00;1.00;;;;;;4934937;29;20526;-66
2022/09/18 09:20:55;;;;;;;2.37;1.33;;;12.10;1.00;;;;;;4932522;29;20465;-65
2022/09/18 09:23:30;;;;;;;3.97;1.53;;;12.20;99.90;;;;;;4932700;29;20431;-66
2022/09/18 09:26:06;;;;;;;5.23;1.43;;;12.30;29.10;;;;;;4937283;29;20457;-65
2022/09/18 09:28:50;;;;;;;3.27;1.47;;;12.20;1.00;;;;;;4932110;29;20441;-64
2022/09/18 09:31:19;;;;;;;5.60;1.63;;;12.40;99.90;;;;;;4936031;29;20501;-65
2022/09/18 09:34:05;;;;;;;5.23;1.57;;;12.40;99.90;;;;;;4933781;29;20440;-65
2022/09/18 09:36:33;;;;;;;5.00;1.50;;;12.50;1.00;;;;;;4934506;29;20419;-66
2022/09/18 09:39:07;;;;;;;2.10;1.43;;;12.50;1.00;;;;;;4936829;29;20431;-66
2022/09/18 09:41:42;;;;;;;4.53;1.50;;;12.40;1.00;;;;;;4933224;29;20814;-65
2022/09/18 09:44:38;;;;;;;4.70;1.80;;;12.30;1.00;;;;;;4934753;29;20465;-64
2022/09/18 09:47:20;;;;;;;9.47;1.80;;;12.40;99.90;;;;;;4933967;29;20448;-66
2022/09/18 09:50:16;;;;;;;3.73;1.23;;;12.50;1.00;;;;;;4935511;29;20529;-65
2022/09/18 09:52:45;;;;;;;6.13;2.33;;;12.60;17.50;;;;;;4940210;29;20437;-67
2022/09/18 09:55:18;;;;;;;3.17;1.67;;;12.80;1.00;;;;;;4938249;29;20474;-65
2022/09/18 09:57:55;;;;;;;3.70;2.00;;;12.80;99.90;;;;;;4937246;29;20435;-65
2022/09/18 10:00:22;;;;;;;8.13;2.73;;;12.80;99.90;;;;;;4935190;29;20832;-65
2022/09/18 10:03:03;;;;;;;3.37;1.67;;;12.90;99.90;;;;;;4930976;28;20438;-67
2022/09/18 10:05:39;;;;;;;3.23;1.73;;;13.00;1.00;;;;;;4929715;29;20453;-67
2022/09/18 10:08:30;;;;;;;4.43;2.27;;;13.00;99.90;;;;;;4931309;29;20452;-67
2022/09/18 10:10:59;;;;;;;2.57;1.50;;;13.10;99.90;;;;;;4931884;28;20475;-67
2022/09/18 10:13:32;;;;;;;2.60;1.50;;;13.10;99.90;;;;;;4932722;29;20443;-67
2022/09/18 10:16:10;;;;;;;9.23;2.20;;;13.20;92.20;;;;;;4934438;29;20466;-68
2022/09/18 10:18:40;;;;;;;3.40;1.73;;;13.40;1.00;;;;;;4931100;29;20439;-68
2022/09/18 10:21:13;;;;;;;2.37;1.60;;;13.50;1.00;;;;;;4944921;29;20474;-67
2022/09/18 10:23:41;;;;;;;107.07;14.30;;;13.50;1.00;;;;;;4938316;28;20850;-67
2022/09/18 10:26:32;;;;;;;9.30;2.70;;;13.80;99.90;;;;;;4937435;29;20866;-69
2022/09/18 10:28:59;;;;;;;25.00;4.27;;;14.10;99.90;;;;;;4935287;29;20426;-67
2022/09/18 10:31:51;;;;;;;8.17;2.67;;;14.10;1.00;;;;;;4932853;29;20958;-68
2022/09/18 10:34:41;;;;;;;11.13;2.97;;;14.10;99.90;;;;;;4935963;29;20519;-68
2022/09/18 10:37:27;;;;;;;21.17;3.83;;;13.90;26.30;;;;;;4929720;29;20967;-68
2022/09/18 10:40:01;;;;;;;10.87;2.10;;;13.80;99.90;;;;;;4944249;28;20845;-68
2022/09/18 10:42:28;;;;;;;16.63;3.13;;;13.80;99.90;;;;;;4929370;29;20979;-67
2022/09/18 10:44:57;;;;;;;11.23;2.60;;;13.90;99.90;;;;;;4935399;29;20469;-68
2022/09/18 10:47:29;;;;;;;3.70;1.57;;;14.00;14.30;;;;;;4932848;29;20423;-68
2022/09/18 10:50:06;;;;;;;16.50;2.80;;;14.10;1.00;;;;;;4933632;29;20430;-67
2022/09/18 10:52:43;;;;;;;5.80;1.50;;;14.10;1.00;;;;;;4935552;29;20456;-68
2022/09/18 10:55:11;;;;;;;6.50;2.17;;;14.20;1.00;;;;;;4933486;29;20564;-66
2022/09/18 10:57:57;;;;;;;3.50;1.70;;;14.30;1.00;;;;;;4934653;28;20443;-65
2022/09/18 11:00:23;;;;;;;10.63;2.67;;;14.20;1.00;;;;;;4928748;29;20478;-66
2022/09/18 11:02:48;;;;;;;3.87;1.67;;;14.20;1.00;;;;;;4932164;29;20494;-65
2022/09/18 11:05:29;;;;;;;6.43;2.03;;;14.30;1.00;;;;;;4933212;29;20684;-66
2022/09/18 11:07:57;;;;;;;3.50;1.83;;;14.10;1.00;;;;;;4930474;29;20182;-66
2022/09/18 11:10:25;;;;;;;5.47;2.20;;;14.10;1.00;;;;;;4934253;29;20948;-66
2022/09/18 11:12:59;;;;;;;5.60;1.60;;;14.20;1.00;;;;;;4933892;29;20426;-66
2022/09/18 11:15:33;;;;;;;4.50;1.40;;;14.30;1.00;;;;;;4933342;29;20459;-66
2022/09/18 11:18:01;;;;;;;7.03;1.50;;;14.30;1.00;;;;;;4930491;29;20434;-65
2022/09/18 11:20:37;;;;;;;2.90;1.20;;;14.30;1.00;;;;;;4933771;29;20443;-66
2022/09/18 11:23:29;;;;;;;1.30;1.00;;;14.50;1.00;;;;;;4927189;29;20509;-66
2022/09/18 11:26:26;;;;;;;13.83;2.67;;;14.50;1.00;;;;;;4930372;29;20461;-66
2022/09/18 11:29:16;;;;;;;8.03;2.20;;;14.70;1.00;;;;;;4933161;29;20437;-66
2022/09/18 11:31:50;;;;;;;16.03;3.53;;;14.90;1.00;;;;;;4928445;29;20438;-67
2022/09/18 11:34:27;;;;;;;6.13;2.03;;;14.90;99.90;;;;;;4933498;29;20435;-65
2022/09/18 11:36:58;;;;;;;8.93;2.33;;;14.90;99.90;;;;;;4933332;29;21074;-65
2022/09/18 11:39:50;;;;;;;10.23;2.10;;;14.80;99.90;;;;;;4933839;29;20521;-65
2022/09/18 11:42:17;;;;;;;9.00;3.13;;;14.70;99.90;;;;;;4933070;29;20967;-66
2022/09/18 11:44:43;;;;;;;6.37;2.43;;;14.80;99.90;;;;;;4933181;29;20466;-65
2022/09/18 11:47:42;;;;;;;4.80;1.50;;;14.90;99.90;;;;;;4932676;29;20431;-65
2022/09/18 11:50:20;;;;;;;8.07;2.13;;;14.80;99.90;;;;;;4931031;29;20426;-64
2022/09/18 11:52:58;;;;;;;24.13;4.10;;;14.90;99.90;;;;;;4929051;29;20512;-65
2022/09/18 11:55:32;;;;;;;13.83;2.23;;;14.90;99.90;;;;;;4931528;29;20471;-66
2022/09/18 11:58:25;;;;;;;8.93;2.10;;;14.90;99.90;;;;;;4935059;29;20469;-66
2022/09/18 12:01:20;;;;;;;5.73;2.30;;;14.80;99.90;;;;;;4928534;29;20474;-66
2022/09/18 12:04:13;;;;;;;6.00;1.83;;;14.70;99.90;;;;;;4928643;29;20435;-65
2022/09/18 12:06:50;;;;;;;18.67;3.50;;;14.70;99.90;;;;;;4933087;29;20542;-66
2022/09/18 12:09:25;;;;;;;2.57;1.43;;;14.70;99.90;;;;;;4932363;29;20438;-66
2022/09/18 12:12:12;;;;;;;3.03;1.27;;;14.80;99.90;;;;;;4927494;29;20844;-66
2022/09/18 12:14:54;;;;;;;5.30;1.50;;;14.90;99.90;;;;;;4933032;28;20636;-65
2022/09/18 12:17:29;;;;;;;5.43;1.30;;;15.00;99.90;;;;;;4931393;29;20836;-65
2022/09/18 12:20:00;;;;;;;3.10;1.40;;;15.20;99.90;;;;;;4932513;29;20434;-65
2022/09/18 12:22:35;;;;;;;12.03;2.50;;;15.10;99.90;;;;;;4935471;29;21013;-65
2022/09/18 12:25:01;;;;;;;12.80;2.30;;;15.20;99.90;;;;;;4929286;29;20458;-65
2022/09/18 12:27:54;;;;;;;23.97;3.77;;;15.30;99.90;;;;;;4932467;29;20433;-64
2022/09/18 12:30:28;;;;;;;12.07;3.13;;;15.40;99.90;;;;;;4932074;29;20521;-65
2022/09/18 12:33:29;;;;;;;13.60;2.47;;;15.50;99.90;;;;;;4927988;29;20494;-65
2022/09/18 12:36:01;;;;;;;7.73;1.73;;;15.50;99.90;;;;;;4909143;29;21180;-65
2022/09/18 12:38:29;;;;;;;9.17;1.97;;;15.50;99.90;;;;;;4935709;29;20433;-65
2022/09/18 12:41:39;;;;;;;6.90;1.90;;;15.60;99.90;;;;;;4936256;29;20462;-66
2022/09/18 12:44:28;;;;;;;5.30;1.97;;;15.40;99.90;;;;;;4932156;29;20450;-66
2022/09/18 12:46:59;;;;;;;6.10;1.83;;;15.40;99.90;;;;;;4933264;29;20441;-66
2022/09/18 12:49:52;;;;;;;2.43;1.60;;;15.30;99.90;;;;;;4938288;29;20446;-66
2022/09/18 12:53:13;;;;;;;7.10;2.20;;;15.20;99.90;;;;;;4936353;29;20529;-66
2022/09/18 12:55:57;;;;;;;2.97;1.43;;;15.20;99.90;;;;;;4925293;29;20993;-66
2022/09/18 12:58:59;;;;;;;74.97;9.80;;;15.00;99.90;;;;;;4936806;29;20430;-66
2022/09/18 13:01:28;;;;;;;6.80;2.30;;;14.90;99.90;;;;;;4937529;29;20481;-66
2022/09/18 13:04:01;;;;;;;4.20;1.50;;;15.00;99.90;;;;;;4937559;29;20963;-66
2022/09/18 13:06:40;;;;;;;6.50;1.47;;;14.90;99.90;;;;;;4936181;29;20454;-67
2022/09/18 13:09:31;;;;;;;8.00;1.73;;;14.80;99.90;;;;;;4935703;29;20814;-66
2022/09/18 13:12:03;;;;;;;25.70;4.90;;;14.80;99.90;;;;;;4935529;29;20554;-66
2022/09/18 13:14:36;;;;;;;9.10;2.47;;;14.80;99.90;;;;;;4936258;28;20471;-67
2022/09/18 13:17:25;;;;;;;7.63;1.80;;;14.90;99.90;;;;;;4935891;29;20496;-66
2022/09/18 13:19:58;;;;;;;10.40;2.70;;;14.80;99.90;;;;;;4934446;29;20438;-66